sensor_id;sensor_type;location;lat;lon;timestamp;temperature;humidity
16136;DHT22;8173;48.354;9.248;2023-07-20T00:01:33;16.20;99.90
16136;DHT22;8173;48.354;9.248;2023-07-20T00:03:59;16.20;99.90
16136;DHT22;8173;48.354;9.248;2023-07-20T00:06:26;16.10;99.90
16136;DHT22;8173;48.354;9.248;2023-07-20T00:08:53;16.00;99.90
16136;DHT22;8173;48.354;9.248;2023-07-20T00:11:20;15.90;99.90
16136;DHT22;8173;48.354;9.248;2023-07-20T00:13:48;15.90;99.90
16136;DHT22;8173;48.354;9.248;2023-07-20T00:16:16;15.80;99.90
16136;DHT22;8173;48.354;9.248;2023-07-20T00:18:42;15.80;99.90
16136;DHT22;8173;48.354;9.248;2023-07-20T00:21:09;15.70;99.90
16136;DHT22;8173;48.354;9.248;2023-07-20T00:23:37;15.60;99.90
16136;DHT22;8173;48.354;9.248;2023-07-20T00:26:04;15.60;99.90
16136;DHT22;8173;48.354;9.248;2023-07-20T00:28:31;15.50;99.90
16136;DHT22;8173;48.354;9.248;2023-07-20T00:31:00;15.40;99.90
16136;DHT22;8173;48.354;9.248;2023-07-20T00:33:28;15.40;99.90
16136;DHT22;8173;48.354;9.248;2023-07-20T00:35:55;15.30;99.90
16136;DHT22;8173;48.354;9.248;2023-07-20T00:38:21;15.30;99.90
16136;DHT22;8173;48.354;9.248;2023-07-20T00:40:48;15.30;99.90
16136;DHT22;8173;48.354;9.248;2023-07-20T00:43:15;15.30;99.90
16136;DHT22;8173;48.354;9.248;2023-07-20T00:45:42;15.20;99.90
16136;DHT22;8173;48.354;9.248;2023-07-20T00:48:12;15.10;99.90
16136;DHT22;8173;48.354;9.248;2023-07-20T00:50:40;15.10;99.90
16136;DHT22;8173;48.354;9.248;2023-07-20T00:53:07;15.00;99.90
16136;DHT22;8173;48.354;9.248;2023-07-20T00:55:34;15.00;99.90
16136;DHT22;8173;48.354;9.248;2023-07-20T00:58:01;14.90;99.90
16136;DHT22;8173;48.354;9.248;2023-07-20T01:00:28;14.90;99.90
16136;DHT22;8173;48.354;9.248;2023-07-20T01:02:54;14.80;99.90
16136;DHT22;8173;48.354;9.248;2023-07-20T01:05:30;14.80;99.90
16136;DHT22;8173;48.354;9.248;2023-07-20T01:08:09;14.70;99.90
16136;DHT22;8173;48.354;9.248;2023-07-20T01:10:41;14.70;99.90
16136;DHT22;8173;48.354;9.248;2023-07-20T01:13:10;14.70;99.90
16136;DHT22;8173;48.354;9.248;2023-07-20T01:15:37;14.70;99.90
16136;DHT22;8173;48.354;9.248;2023-07-20T01:18:04;14.70;99.90
16136;DHT22;8173;48.354;9.248;2023-07-20T01:20:33;14.70;99.90
16136;DHT22;8173;48.354;9.248;2023-07-20T01:26:27;14.60;99.90
16136;DHT22;8173;48.354;9.248;2023-07-20T01:29:11;14.60;99.90
16136;DHT22;8173;48.354;9.248;2023-07-20T01:31:45;14.60;99.90
16136;DHT22;8173;48.354;9.248;2023-07-20T01:34:15;14.50;99.90
16136;DHT22;8173;48.354;9.248;2023-07-20T01:36:44;14.50;99.90
16136;DHT22;8173;48.354;9.248;2023-07-20T01:39:12;14.50;99.90
16136;DHT22;8173;48.354;9.248;2023-07-20T01:41:40;14.40;99.90
16136;DHT22;8173;48.354;9.248;2023-07-20T01:44:08;14.40;99.90
16136;DHT22;8173;48.354;9.248;2023-07-20T01:46:35;14.30;99.90
16136;DHT22;8173;48.354;9.248;2023-07-20T01:49:03;14.30;99.90
16136;DHT22;8173;48.354;9.248;2023-07-20T01:51:30;14.30;99.90
16136;DHT22;8173;48.354;9.248;2023-07-20T01:53:57;14.30;99.90
16136;DHT22;8173;48.354;9.248;2023-07-20T01:56:23;14.30;99.90
16136;DHT22;8173;48.354;9.248;2023-07-20T01:58:50;14.20;99.90
16136;DHT22;8173;48.354;9.248;2023-07-20T02:01:17;14.10;99.90
16136;DHT22;8173;48.354;9.248;2023-07-20T02:03:43;14.10;99.90
16136;DHT22;8173;48.354;9.248;2023-07-20T02:06:12;14.10;99.90
16136;DHT22;8173;48.354;9.248;2023-07-20T02:08:38;14.00;99.90
16136;DHT22;8173;48.354;9.248;2023-07-20T02:11:05;14.00;99.90
16136;DHT22;8173;48.354;9.248;2023-07-20T02:13:32;13.90;99.90
16136;DHT22;8173;48.354;9.248;2023-07-20T02:15:58;13.90;99.90
16136;DHT22;8173;48.354;9.248;2023-07-20T02:18:25;13.90;99.90
16136;DHT22;8173;48.354;9.248;2023-07-20T02:20:53;13.90;99.90
16136;DHT22;8173;48.354;9.248;2023-07-20T02:23:21;13.90;99.90
16136;DHT22;8173;48.354;9.248;2023-07-20T02:25:47;13.80;99.90
16136;DHT22;8173;48.354;9.248;2023-07-20T02:28:15;13.80;99.90
16136;DHT22;8173;48.354;9.248;2023-07-20T02:30:41;13.70;99.90
16136;DHT22;8173;48.354;9.248;2023-07-20T02:33:08;13.70;99.90
16136;DHT22;8173;48.354;9.248;2023-07-20T02:35:35;13.70;99.90
16136;DHT22;8173;48.354;9.248;2023-07-20T02:38:01;13.60;99.90
16136;DHT22;8173;48.354;9.248;2023-07-20T02:40:30;13.60;99.90
16136;DHT22;8173;48.354;9.248;2023-07-20T02:42:57;13.70;99.90
16136;DHT22;8173;48.354;9.248;2023-07-20T02:45:24;13.60;99.90
16136;DHT22;8173;48.354;9.248;2023-07-20T02:47:51;13.60;99.90
16136;DHT22;8173;48.354;9.248;2023-07-20T02:50:17;13.70;99.90
16136;DHT22;8173;48.354;9.248;2023-07-20T02:52:44;13.80;99.90
16136;DHT22;8173;48.354;9.248;2023-07-20T02:55:11;13.80;99.90
16136;DHT22;8173;48.354;9.248;2023-07-20T02:57:39;13.80;99.90
16136;DHT22;8173;48.354;9.248;2023-07-20T03:00:07;13.70;99.90
16136;DHT22;8173;48.354;9.248;2023-07-20T03:02:34;13.70;99.90
16136;DHT22;8173;48.354;9.248;2023-07-20T03:05:00;13.70;99.90
16136;DHT22;8173;48.354;9.248;2023-07-20T03:07:31;13.70;99.90
16136;DHT22;8173;48.354;9.248;2023-07-20T03:09:58;13.60;99.90
16136;DHT22;8173;48.354;9.248;2023-07-20T03:12:24;13.80;99.90
16136;DHT22;8173;48.354;9.248;2023-07-20T03:14:52;13.70;99.90
16136;DHT22;8173;48.354;9.248;2023-07-20T03:17:19;13.70;99.90
16136;DHT22;8173;48.354;9.248;2023-07-20T03:19:46;13.70;99.90
16136;DHT22;8173;48.354;9.248;2023-07-20T03:22:13;13.60;99.90
16136;DHT22;8173;48.354;9.248;2023-07-20T03:24:40;13.60;99.90
16136;DHT22;8173;48.354;9.248;2023-07-20T03:27:06;13.60;99.90
16136;DHT22;8173;48.354;9.248;2023-07-20T03:29:33;13.60;99.90
16136;DHT22;8173;48.354;9.248;2023-07-20T03:32:01;13.60;99.90
16136;DHT22;8173;48.354;9.248;2023-07-20T03:34:28;13.50;99.90
16136;DHT22;8173;48.354;9.248;2023-07-20T03:36:55;13.50;99.90
16136;DHT22;8173;48.354;9.248;2023-07-20T03:39:22;13.50;99.90
16136;DHT22;8173;48.354;9.248;2023-07-20T03:41:49;13.50;99.90
16136;DHT22;8173;48.354;9.248;2023-07-20T03:44:15;13.40;99.90
16136;DHT22;8173;48.354;9.248;2023-07-20T03:46:42;13.30;99.90
16136;DHT22;8173;48.354;9.248;2023-07-20T03:49:10;13.40;99.90
16136;DHT22;8173;48.354;9.248;2023-07-20T03:51:37;13.40;99.90
16136;DHT22;8173;48.354;9.248;2023-07-20T03:54:04;13.40;99.90
16136;DHT22;8173;48.354;9.248;2023-07-20T03:56:30;13.40;99.90
16136;DHT22;8173;48.354;9.248;2023-07-20T03:59:00;13.40;99.90
16136;DHT22;8173;48.354;9.248;2023-07-20T04:01:27;13.30;99.90
16136;DHT22;8173;48.354;9.248;2023-07-20T04:03:54;13.30;99.90
16136;DHT22;8173;48.354;9.248;2023-07-20T04:06:22;13.20;99.90
16136;DHT22;8173;48.354;9.248;2023-07-20T04:08:49;13.30;99.90
16136;DHT22;8173;48.354;9.248;2023-07-20T04:11:15;13.40;99.90
16136;DHT22;8173;48.354;9.248;2023-07-20T04:13:42;13.50;99.90
16136;DHT22;8173;48.354;9.248;2023-07-20T04:16:09;13.40;99.90
16136;DHT22;8173;48.354;9.248;2023-07-20T04:18:35;13.40;99.90
16136;DHT22;8173;48.354;9.248;2023-07-20T04:21:02;13.50;99.90
16136;DHT22;8173;48.354;9.248;2023-07-20T04:23:30;13.60;99.90
16136;DHT22;8173;48.354;9.248;2023-07-20T04:25:57;13.70;99.90
16136;DHT22;8173;48.354;9.248;2023-07-20T04:28:23;13.70;99.90
16136;DHT22;8173;48.354;9.248;2023-07-20T04:30:50;13.70;99.90
16136;DHT22;8173;48.354;9.248;2023-07-20T04:33:17;13.90;99.90
16136;DHT22;8173;48.354;9.248;2023-07-20T04:35:46;13.90;99.90
16136;DHT22;8173;48.354;9.248;2023-07-20T04:38:14;13.90;99.90
16136;DHT22;8173;48.354;9.248;2023-07-20T04:40:44;14.00;99.90
16136;DHT22;8173;48.354;9.248;2023-07-20T04:43:11;13.90;99.90
16136;DHT22;8173;48.354;9.248;2023-07-20T04:45:38;14.00;99.90
16136;DHT22;8173;48.354;9.248;2023-07-20T04:48:08;14.10;99.90
16136;DHT22;8173;48.354;9.248;2023-07-20T04:50:35;14.20;99.90
16136;DHT22;8173;48.354;9.248;2023-07-20T04:53:02;14.20;99.90
16136;DHT22;8173;48.354;9.248;2023-07-20T04:55:29;14.30;99.90
16136;DHT22;8173;48.354;9.248;2023-07-20T04:57:57;14.60;99.90
16136;DHT22;8173;48.354;9.248;2023-07-20T05:00:24;15.00;99.90
16136;DHT22;8173;48.354;9.248;2023-07-20T05:02:51;15.30;99.90
16136;DHT22;8173;48.354;9.248;2023-07-20T05:05:17;15.50;99.90
16136;DHT22;8173;48.354;9.248;2023-07-20T05:07:44;15.80;99.90
16136;DHT22;8173;48.354;9.248;2023-07-20T05:10:11;16.30;99.90
16136;DHT22;8173;48.354;9.248;2023-07-20T05:12:38;17.00;99.90
16136;DHT22;8173;48.354;9.248;2023-07-20T05:15:06;17.20;99.90
16136;DHT22;8173;48.354;9.248;2023-07-20T05:17:33;17.20;99.90
16136;DHT22;8173;48.354;9.248;2023-07-20T05:20:00;17.10;99.90
16136;DHT22;8173;48.354;9.248;2023-07-20T05:22:27;17.50;99.90
16136;DHT22;8173;48.354;9.248;2023-07-20T05:24:53;17.40;99.90
16136;DHT22;8173;48.354;9.248;2023-07-20T05:27:20;17.20;99.90
16136;DHT22;8173;48.354;9.248;2023-07-20T05:29:47;17.00;99.90
16136;DHT22;8173;48.354;9.248;2023-07-20T05:32:15;16.70;99.90
16136;DHT22;8173;48.354;9.248;2023-07-20T05:34:41;16.40;99.90
16136;DHT22;8173;48.354;9.248;2023-07-20T05:37:08;16.10;99.90
16136;DHT22;8173;48.354;9.248;2023-07-20T05:39:35;15.90;99.90
16136;DHT22;8173;48.354;9.248;2023-07-20T05:42:02;15.80;99.90
16136;DHT22;8173;48.354;9.248;2023-07-20T05:44:29;15.80;99.90
16136;DHT22;8173;48.354;9.248;2023-07-20T05:46:56;15.70;99.90
16136;DHT22;8173;48.354;9.248;2023-07-20T05:49:24;15.70;99.90
16136;DHT22;8173;48.354;9.248;2023-07-20T05:51:50;15.70;99.90
16136;DHT22;8173;48.354;9.248;2023-07-20T05:54:17;15.80;99.90
16136;DHT22;8173;48.354;9.248;2023-07-20T05:56:45;15.90;99.90
16136;DHT22;8173;48.354;9.248;2023-07-20T05:59:12;15.90;99.90
16136;DHT22;8173;48.354;9.248;2023-07-20T06:01:39;16.00;99.90
16136;DHT22;8173;48.354;9.248;2023-07-20T06:04:05;16.30;99.90
16136;DHT22;8173;48.354;9.248;2023-07-20T06:06:33;16.60;99.90
16136;DHT22;8173;48.354;9.248;2023-07-20T06:09:00;16.80;99.90
16136;DHT22;8173;48.354;9.248;2023-07-20T06:11:29;16.80;99.90
16136;DHT22;8173;48.354;9.248;2023-07-20T06:13:56;16.90;99.90
16136;DHT22;8173;48.354;9.248;2023-07-20T06:16:22;16.90;99.90
16136;DHT22;8173;48.354;9.248;2023-07-20T06:18:49;16.80;99.90
16136;DHT22;8173;48.354;9.248;2023-07-20T06:21:16;17.00;99.90
16136;DHT22;8173;48.354;9.248;2023-07-20T06:23:44;17.10;99.90
16136;DHT22;8173;48.354;9.248;2023-07-20T06:26:11;17.20;99.90
16136;DHT22;8173;48.354;9.248;2023-07-20T06:28:38;17.10;99.90
16136;DHT22;8173;48.354;9.248;2023-07-20T06:31:04;17.00;99.90
16136;DHT22;8173;48.354;9.248;2023-07-20T06:33:31;17.10;99.90
16136;DHT22;8173;48.354;9.248;2023-07-20T06:35:58;17.60;99.90
16136;DHT22;8173;48.354;9.248;2023-07-20T06:38:25;18.40;99.90
16136;DHT22;8173;48.354;9.248;2023-07-20T06:40:53;18.90;99.90
16136;DHT22;8173;48.354;9.248;2023-07-20T06:43:20;19.40;99.90
16136;DHT22;8173;48.354;9.248;2023-07-20T06:45:51;20.10;99.90
16136;DHT22;8173;48.354;9.248;2023-07-20T06:48:19;20.00;99.90
16136;DHT22;8173;48.354;9.248;2023-07-20T06:50:45;19.50;99.90
16136;DHT22;8173;48.354;9.248;2023-07-20T06:53:12;19.40;99.90
16136;DHT22;8173;48.354;9.248;2023-07-20T06:55:39;19.80;99.90
16136;DHT22;8173;48.354;9.248;2023-07-20T06:58:09;19.90;99.90
16136;DHT22;8173;48.354;9.248;2023-07-20T07:00:36;20.00;99.90
16136;DHT22;8173;48.354;9.248;2023-07-20T07:03:02;20.30;99.90
16136;DHT22;8173;48.354;9.248;2023-07-20T07:05:29;21.30;99.90
16136;DHT22;8173;48.354;9.248;2023-07-20T07:07:56;22.30;99.90
16136;DHT22;8173;48.354;9.248;2023-07-20T07:10:23;23.20;99.90
16136;DHT22;8173;48.354;9.248;2023-07-20T07:12:49;23.40;99.90
16136;DHT22;8173;48.354;9.248;2023-07-20T07:15:18;23.30;99.90
16136;DHT22;8173;48.354;9.248;2023-07-20T07:17:44;23.40;99.90
16136;DHT22;8173;48.354;9.248;2023-07-20T07:20:11;23.40;99.90
16136;DHT22;8173;48.354;9.248;2023-07-20T07:22:38;23.20;99.90
16136;DHT22;8173;48.354;9.248;2023-07-20T07:25:06;23.80;99.90
16136;DHT22;8173;48.354;9.248;2023-07-20T07:27:33;23.70;99.90
16136;DHT22;8173;48.354;9.248;2023-07-20T07:29:59;23.90;99.90
16136;DHT22;8173;48.354;9.248;2023-07-20T07:32:27;24.40;99.90
16136;DHT22;8173;48.354;9.248;2023-07-20T07:34:54;25.00;99.90
16136;DHT22;8173;48.354;9.248;2023-07-20T07:37:23;25.10;99.90
16136;DHT22;8173;48.354;9.248;2023-07-20T07:39:50;24.50;99.90
16136;DHT22;8173;48.354;9.248;2023-07-20T07:42:17;24.40;99.90
16136;DHT22;8173;48.354;9.248;2023-07-20T07:44:44;24.70;99.90
16136;DHT22;8173;48.354;9.248;2023-07-20T07:47:11;24.10;99.90
16136;DHT22;8173;48.354;9.248;2023-07-20T07:49:39;24.10;99.90
16136;DHT22;8173;48.354;9.248;2023-07-20T07:52:06;24.30;99.90
16136;DHT22;8173;48.354;9.248;2023-07-20T07:54:33;24.30;99.90
16136;DHT22;8173;48.354;9.248;2023-07-20T07:56:59;23.80;99.90
16136;DHT22;8173;48.354;9.248;2023-07-20T07:59:26;24.00;99.90
16136;DHT22;8173;48.354;9.248;2023-07-20T08:01:53;24.30;99.90
16136;DHT22;8173;48.354;9.248;2023-07-20T08:04:20;24.50;99.90
16136;DHT22;8173;48.354;9.248;2023-07-20T08:06:48;24.30;99.90
16136;DHT22;8173;48.354;9.248;2023-07-20T08:09:15;23.60;99.90
16136;DHT22;8173;48.354;9.248;2023-07-20T08:11:41;23.70;99.90
16136;DHT22;8173;48.354;9.248;2023-07-20T08:14:08;24.20;99.90
16136;DHT22;8173;48.354;9.248;2023-07-20T08:16:35;24.30;99.90
16136;DHT22;8173;48.354;9.248;2023-07-20T08:19:01;24.50;99.50
16136;DHT22;8173;48.354;9.248;2023-07-20T08:21:28;24.40;98.80
16136;DHT22;8173;48.354;9.248;2023-07-20T08:23:56;24.10;97.20
16136;DHT22;8173;48.354;9.248;2023-07-20T08:26:23;24.20;94.70
16136;DHT22;8173;48.354;9.248;2023-07-20T08:28:50;23.90;95.40
16136;DHT22;8173;48.354;9.248;2023-07-20T08:31:16;23.70;94.80
16136;DHT22;8173;48.354;9.248;2023-07-20T08:33:43;22.80;97.30
16136;DHT22;8173;48.354;9.248;2023-07-20T08:36:10;21.70;99.90
16136;DHT22;8173;48.354;9.248;2023-07-20T08:38:37;21.70;99.90
16136;DHT22;8173;48.354;9.248;2023-07-20T08:41:05;21.80;99.90
16136;DHT22;8173;48.354;9.248;2023-07-20T08:43:33;21.70;99.90
16136;DHT22;8173;48.354;9.248;2023-07-20T08:46:02;22.50;99.90
16136;DHT22;8173;48.354;9.248;2023-07-20T08:48:30;22.80;99.90
16136;DHT22;8173;48.354;9.248;2023-07-20T08:50:58;22.80;99.90
16136;DHT22;8173;48.354;9.248;2023-07-20T08:53:27;22.40;99.90
16136;DHT22;8173;48.354;9.248;2023-07-20T08:55:55;22.20;99.90
16136;DHT22;8173;48.354;9.248;2023-07-20T08:58:23;22.10;99.90
16136;DHT22;8173;48.354;9.248;2023-07-20T09:00:52;21.90;99.90
16136;DHT22;8173;48.354;9.248;2023-07-20T09:03:19;21.60;99.90
16136;DHT22;8173;48.354;9.248;2023-07-20T09:05:46;21.00;99.90
16136;DHT22;8173;48.354;9.248;2023-07-20T09:08:13;21.10;99.90
16136;DHT22;8173;48.354;9.248;2023-07-20T09:10:40;21.80;99.90
16136;DHT22;8173;48.354;9.248;2023-07-20T09:13:06;21.70;99.90
16136;DHT22;8173;48.354;9.248;2023-07-20T09:15:35;21.60;99.90
16136;DHT22;8173;48.354;9.248;2023-07-20T09:18:02;21.90;99.90
16136;DHT22;8173;48.354;9.248;2023-07-20T09:20:32;22.10;99.90
16136;DHT22;8173;48.354;9.248;2023-07-20T09:22:58;22.80;99.90
16136;DHT22;8173;48.354;9.248;2023-07-20T09:25:27;23.20;99.90
16136;DHT22;8173;48.354;9.248;2023-07-20T09:27:54;23.40;99.90
16136;DHT22;8173;48.354;9.248;2023-07-20T09:30:25;24.30;99.90
16136;DHT22;8173;48.354;9.248;2023-07-20T09:32:53;24.10;99.90
16136;DHT22;8173;48.354;9.248;2023-07-20T09:35:21;24.10;99.90
16136;DHT22;8173;48.354;9.248;2023-07-20T09:37:50;23.20;99.90
16136;DHT22;8173;48.354;9.248;2023-07-20T09:40:19;23.40;99.90
16136;DHT22;8173;48.354;9.248;2023-07-20T09:42:47;23.60;99.90
16136;DHT22;8173;48.354;9.248;2023-07-20T09:45:14;23.40;99.90
16136;DHT22;8173;48.354;9.248;2023-07-20T09:47:40;23.70;99.90
16136;DHT22;8173;48.354;9.248;2023-07-20T09:50:09;23.90;99.90
16136;DHT22;8173;48.354;9.248;2023-07-20T09:52:40;24.50;99.90
16136;DHT22;8173;48.354;9.248;2023-07-20T09:55:09;24.80;99.90
16136;DHT22;8173;48.354;9.248;2023-07-20T09:57:37;24.90;99.90
16136;DHT22;8173;48.354;9.248;2023-07-20T10:00:05;24.60;99.90
16136;DHT22;8173;48.354;9.248;2023-07-20T10:02:42;24.50;99.90
16136;DHT22;8173;48.354;9.248;2023-07-20T10:05:12;25.20;99.40
16136;DHT22;8173;48.354;9.248;2023-07-20T10:07:43;25.20;99.80
16136;DHT22;8173;48.354;9.248;2023-07-20T10:10:11;24.80;99.10
16136;DHT22;8173;48.354;9.248;2023-07-20T10:12:41;25.30;99.90
16136;DHT22;8173;48.354;9.248;2023-07-20T10:15:11;24.90;99.10
16136;DHT22;8173;48.354;9.248;2023-07-20T10:17:47;24.80;99.70
16136;DHT22;8173;48.354;9.248;2023-07-20T10:20:17;24.80;97.70
16136;DHT22;8173;48.354;9.248;2023-07-20T10:22:47;24.20;99.50
16136;DHT22;8173;48.354;9.248;2023-07-20T10:25:15;23.10;98.60
16136;DHT22;8173;48.354;9.248;2023-07-20T10:27:43;23.10;99.20
16136;DHT22;8173;48.354;9.248;2023-07-20T10:30:10;23.80;99.90
16136;DHT22;8173;48.354;9.248;2023-07-20T10:32:37;24.10;98.00
16136;DHT22;8173;48.354;9.248;2023-07-20T10:35:13;24.80;97.90
16136;DHT22;8173;48.354;9.248;2023-07-20T10:37:49;25.20;98.10
16136;DHT22;8173;48.354;9.248;2023-07-20T10:40:30;25.80;95.20
16136;DHT22;8173;48.354;9.248;2023-07-20T10:43:08;25.80;92.90
16136;DHT22;8173;48.354;9.248;2023-07-20T10:45:39;25.60;92.40
16136;DHT22;8173;48.354;9.248;2023-07-20T10:48:12;25.30;92.80
16136;DHT22;8173;48.354;9.248;2023-07-20T10:50:40;24.50;94.70
16136;DHT22;8173;48.354;9.248;2023-07-20T10:53:13;24.10;97.10
16136;DHT22;8173;48.354;9.248;2023-07-20T10:55:41;24.30;95.30
16136;DHT22;8173;48.354;9.248;2023-07-20T10:58:10;24.50;96.30
16136;DHT22;8173;48.354;9.248;2023-07-20T11:00:38;24.20;94.20
16136;DHT22;8173;48.354;9.248;2023-07-20T11:03:27;23.60;97.30
16136;DHT22;8173;48.354;9.248;2023-07-20T11:05:56;24.30;94.60
16136;DHT22;8173;48.354;9.248;2023-07-20T11:08:39;24.30;94.00
16136;DHT22;8173;48.354;9.248;2023-07-20T11:11:24;24.60;94.60
16136;DHT22;8173;48.354;9.248;2023-07-20T11:13:54;25.30;94.00
16136;DHT22;8173;48.354;9.248;2023-07-20T11:16:32;25.80;93.20
16136;DHT22;8173;48.354;9.248;2023-07-20T11:18:59;25.30;92.30
16136;DHT22;8173;48.354;9.248;2023-07-20T11:21:26;24.50;94.00
16136;DHT22;8173;48.354;9.248;2023-07-20T11:23:55;24.10;95.40
16136;DHT22;8173;48.354;9.248;2023-07-20T11:26:22;23.30;94.70
16136;DHT22;8173;48.354;9.248;2023-07-20T11:28:49;23.00;95.60
16136;DHT22;8173;48.354;9.248;2023-07-20T11:31:17;23.40;98.40
16136;DHT22;8173;48.354;9.248;2023-07-20T11:33:44;23.80;98.20
16136;DHT22;8173;48.354;9.248;2023-07-20T11:36:11;24.40;97.20
16136;DHT22;8173;48.354;9.248;2023-07-20T11:38:39;24.40;94.70
16136;DHT22;8173;48.354;9.248;2023-07-20T11:41:08;24.10;92.80
16136;DHT22;8173;48.354;9.248;2023-07-20T11:43:35;24.10;95.60
16136;DHT22;8173;48.354;9.248;2023-07-20T11:46:04;24.80;93.30
16136;DHT22;8173;48.354;9.248;2023-07-20T11:48:31;24.80;93.50
16136;DHT22;8173;48.354;9.248;2023-07-20T11:50:58;24.60;94.00
16136;DHT22;8173;48.354;9.248;2023-07-20T11:53:25;25.00;93.60
16136;DHT22;8173;48.354;9.248;2023-07-20T11:55:52;25.20;96.60
16136;DHT22;8173;48.354;9.248;2023-07-20T11:58:20;25.40;92.50
16136;DHT22;8173;48.354;9.248;2023-07-20T12:00:47;24.60;92.50
16136;DHT22;8173;48.354;9.248;2023-07-20T12:03:14;24.30;93.00
16136;DHT22;8173;48.354;9.248;2023-07-20T12:05:41;23.80;93.50
16136;DHT22;8173;48.354;9.248;2023-07-20T12:08:08;23.00;95.80
16136;DHT22;8173;48.354;9.248;2023-07-20T12:10:39;23.20;97.10
16136;DHT22;8173;48.354;9.248;2023-07-20T12:13:10;22.80;93.80
16136;DHT22;8173;48.354;9.248;2023-07-20T12:15:39;23.80;96.10
16136;DHT22;8173;48.354;9.248;2023-07-20T12:18:06;24.00;96.20
16136;DHT22;8173;48.354;9.248;2023-07-20T12:20:34;24.50;95.70
16136;DHT22;8173;48.354;9.248;2023-07-20T12:23:02;25.40;98.30
16136;DHT22;8173;48.354;9.248;2023-07-20T12:25:40;25.80;91.20
16136;DHT22;8173;48.354;9.248;2023-07-20T12:28:08;26.10;92.80
16136;DHT22;8173;48.354;9.248;2023-07-20T12:30:36;25.80;90.50
16136;DHT22;8173;48.354;9.248;2023-07-20T12:33:04;25.10;91.80
16136;DHT22;8173;48.354;9.248;2023-07-20T12:35:32;24.30;91.60
16136;DHT22;8173;48.354;9.248;2023-07-20T12:37:59;24.20;91.80
16136;DHT22;8173;48.354;9.248;2023-07-20T12:40:26;23.80;93.20
16136;DHT22;8173;48.354;9.248;2023-07-20T12:42:53;23.90;91.50
16136;DHT22;8173;48.354;9.248;2023-07-20T12:47:47;23.70;91.30
16136;DHT22;8173;48.354;9.248;2023-07-20T12:50:15;23.30;92.10
16136;DHT22;8173;48.354;9.248;2023-07-20T12:52:42;22.90;92.90
16136;DHT22;8173;48.354;9.248;2023-07-20T12:55:09;23.00;94.60
16136;DHT22;8173;48.354;9.248;2023-07-20T12:57:37;23.90;92.70
16136;DHT22;8173;48.354;9.248;2023-07-20T13:00:06;24.30;93.20
16136;DHT22;8173;48.354;9.248;2023-07-20T13:02:34;24.80;91.50
16136;DHT22;8173;48.354;9.248;2023-07-20T13:05:01;25.00;91.40
16136;DHT22;8173;48.354;9.248;2023-07-20T13:07:34;25.00;92.00
16136;DHT22;8173;48.354;9.248;2023-07-20T13:10:01;25.50;90.80
16136;DHT22;8173;48.354;9.248;2023-07-20T13:12:29;24.70;91.50
16136;DHT22;8173;48.354;9.248;2023-07-20T13:14:57;24.80;92.40
16136;DHT22;8173;48.354;9.248;2023-07-20T13:17:26;25.40;90.70
16136;DHT22;8173;48.354;9.248;2023-07-20T13:19:53;25.40;91.30
16136;DHT22;8173;48.354;9.248;2023-07-20T13:22:19;25.40;89.80
16136;DHT22;8173;48.354;9.248;2023-07-20T13:24:47;25.70;91.30
16136;DHT22;8173;48.354;9.248;2023-07-20T13:27:15;25.30;90.60
16136;DHT22;8173;48.354;9.248;2023-07-20T13:29:42;24.80;90.30
16136;DHT22;8173;48.354;9.248;2023-07-20T13:32:09;25.10;92.80
16136;DHT22;8173;48.354;9.248;2023-07-20T13:34:37;25.40;90.20
16136;DHT22;8173;48.354;9.248;2023-07-20T13:37:04;24.50;88.90
16136;DHT22;8173;48.354;9.248;2023-07-20T13:39:31;24.50;88.60
16136;DHT22;8173;48.354;9.248;2023-07-20T13:41:59;24.90;91.30
16136;DHT22;8173;48.354;9.248;2023-07-20T13:44:27;25.10;89.30
16136;DHT22;8173;48.354;9.248;2023-07-20T13:46:53;25.30;86.60
16136;DHT22;8173;48.354;9.248;2023-07-20T13:49:20;25.30;90.00
16136;DHT22;8173;48.354;9.248;2023-07-20T13:51:47;25.30;90.00
16136;DHT22;8173;48.354;9.248;2023-07-20T13:54:13;25.40;88.30
16136;DHT22;8173;48.354;9.248;2023-07-20T13:56:40;24.60;86.40
16136;DHT22;8173;48.354;9.248;2023-07-20T13:59:08;24.30;88.80
16136;DHT22;8173;48.354;9.248;2023-07-20T14:01:35;24.00;90.20
16136;DHT22;8173;48.354;9.248;2023-07-20T14:04:02;24.10;91.70
16136;DHT22;8173;48.354;9.248;2023-07-20T14:06:30;25.10;89.80
16136;DHT22;8173;48.354;9.248;2023-07-20T14:08:58;25.20;90.70
16136;DHT22;8173;48.354;9.248;2023-07-20T14:11:25;25.60;90.20
16136;DHT22;8173;48.354;9.248;2023-07-20T14:13:52;25.60;87.60
16136;DHT22;8173;48.354;9.248;2023-07-20T14:16:21;26.10;88.10
16136;DHT22;8173;48.354;9.248;2023-07-20T14:18:49;26.20;86.70
16136;DHT22;8173;48.354;9.248;2023-07-20T14:21:16;26.40;85.90
16136;DHT22;8173;48.354;9.248;2023-07-20T14:23:45;26.40;84.20
16136;DHT22;8173;48.354;9.248;2023-07-20T14:26:12;26.10;85.20
16136;DHT22;8173;48.354;9.248;2023-07-20T14:28:39;25.90;82.40
16136;DHT22;8173;48.354;9.248;2023-07-20T14:31:05;25.50;82.90
16136;DHT22;8173;48.354;9.248;2023-07-20T14:33:34;25.50;83.10
16136;DHT22;8173;48.354;9.248;2023-07-20T14:36:01;25.10;82.30
16136;DHT22;8173;48.354;9.248;2023-07-20T14:38:28;25.00;83.20
16136;DHT22;8173;48.354;9.248;2023-07-20T14:40:54;24.80;86.00
16136;DHT22;8173;48.354;9.248;2023-07-20T14:43:21;25.30;88.00
16136;DHT22;8173;48.354;9.248;2023-07-20T14:45:48;25.90;83.40
16136;DHT22;8173;48.354;9.248;2023-07-20T14:48:14;25.80;82.50
16136;DHT22;8173;48.354;9.248;2023-07-20T14:50:42;25.40;82.50
16136;DHT22;8173;48.354;9.248;2023-07-20T14:53:11;25.10;81.70
16136;DHT22;8173;48.354;9.248;2023-07-20T14:55:37;25.00;82.70
16136;DHT22;8173;48.354;9.248;2023-07-20T14:58:04;25.00;81.50
16136;DHT22;8173;48.354;9.248;2023-07-20T15:00:31;24.80;83.30
16136;DHT22;8173;48.354;9.248;2023-07-20T15:02:57;24.70;82.70
16136;DHT22;8173;48.354;9.248;2023-07-20T15:05:25;25.60;81.20
16136;DHT22;8173;48.354;9.248;2023-07-20T15:07:54;25.60;82.20
16136;DHT22;8173;48.354;9.248;2023-07-20T15:10:20;25.00;82.50
16136;DHT22;8173;48.354;9.248;2023-07-20T15:12:47;24.50;82.20
16136;DHT22;8173;48.354;9.248;2023-07-20T15:15:14;24.50;82.40
16136;DHT22;8173;48.354;9.248;2023-07-20T15:17:43;24.70;84.80
16136;DHT22;8173;48.354;9.248;2023-07-20T15:20:12;25.00;84.20
16136;DHT22;8173;48.354;9.248;2023-07-20T15:22:39;25.30;84.60
16136;DHT22;8173;48.354;9.248;2023-07-20T15:25:09;25.50;83.40
16136;DHT22;8173;48.354;9.248;2023-07-20T15:27:37;25.30;80.10
16136;DHT22;8173;48.354;9.248;2023-07-20T15:30:05;24.70;82.30
16136;DHT22;8173;48.354;9.248;2023-07-20T15:32:32;24.80;85.70
16136;DHT22;8173;48.354;9.248;2023-07-20T15:34:58;24.70;82.30
16136;DHT22;8173;48.354;9.248;2023-07-20T15:37:25;23.90;81.80
16136;DHT22;8173;48.354;9.248;2023-07-20T15:39:52;23.40;83.80
16136;DHT22;8173;48.354;9.248;2023-07-20T15:42:20;22.90;85.70
16136;DHT22;8173;48.354;9.248;2023-07-20T15:44:48;22.40;87.40
16136;DHT22;8173;48.354;9.248;2023-07-20T15:47:14;22.40;86.90
16136;DHT22;8173;48.354;9.248;2023-07-20T15:49:42;22.50;87.60
16136;DHT22;8173;48.354;9.248;2023-07-20T15:52:09;22.80;87.50
16136;DHT22;8173;48.354;9.248;2023-07-20T15:54:36;23.10;84.90